Terminal Aerodrome Forecast
Issued by NWS

Home | Current Version | Previous Version | Text Only | Print | Product List | Glossary On
Versions: 1 2 3 4 5 6 7 8 9 10 11 12 13 14 15
399
FTUS46 KSEW 082342
TAFBLI
TAF
KBLI 082342Z 0900/0924 03016G28KT P6SM BKN200
     FM090500 04015G25KT P6SM VCSH SCT080 BKN120 OVC200
     FM090700 06015G25KT 6SM -SN SCT025 OVC050
     FM090900 06015G25KT 2SM -SN SCT008 BKN020 OVC035
     FM091600 04012KT 5SM -RASN SCT015 OVC025
     FM092000 06009KT 6SM -RA SCT006 OVC012=

USA.gov is the U.S. government's official web portal to all federal, state and local government web resources and services.